MST,Max TemperatureF,Mean TemperatureF,Min TemperatureF,Max Dew PointF,MeanDew PointF,Min DewpointF,Max Humidity, Mean Humidity, Min Humidity, Max Sea Level PressureIn, Mean Sea Level PressureIn, Min Sea Level PressureIn, Max VisibilityMiles, Mean VisibilityMiles, Min VisibilityMiles, Max Wind SpeedMPH, Mean Wind SpeedMPH, Max Gust SpeedMPH,PrecipitationIn, CloudCover, Events, WindDirDegrees
2014-1-1,55,41,26,19,16,12,68,44,19,30.30,30.18,30.09,10,10,10,24,7,31,0.00,1,,14
2014-1-2,49,36,22,21,15,10,77,49,21,30.44,30.32,30.23,10,10,10,9,5,14,0.00,1,,76
2014-1-3,49,37,24,20,16,14,68,47,26,30.22,30.08,29.93,10,10,10,13,4,16,0.00,1,,147
2014-1-4,61,45,29,20,14,-2,63,39,14,30.03,29.86,29.63,10,10,10,31,15,40,0.00,1,,225
2014-1-5,39,31,22,5,-1,-9,47,31,14,30.35,30.21,30.03,10,10,10,28,13,33,0.00,1,,345
2014-1-6,40,30,20,1,-1,-2,39,28,17,30.51,30.41,30.35,10,10,10,15,7,18,0.00,0,,340
2014-1-7,42,31,20,6,3,0,45,32,18,30.37,30.25,30.12,10,10,10,9,3,11,0.00,4,,26
2014-1-8,49,35,21,13,9,6,55,37,19,30.17,30.11,30.03,10,10,10,7,2,8,0.00,1,,47
2014-1-9,49,37,24,15,13,12,60,42,23,30.15,30.04,29.93,10,10,10,13,4,15,0.00,4,,142
2014-1-10,55,40,24,17,13,9,55,36,16,30.10,29.95,29.78,10,10,10,36,10,47,0.00,1,,328
2014-1-11,55,41,27,19,18,14,58,42,26,30.24,30.12,30.01,10,10,10,15,6,20,0.00,2,,120
2014-1-12,59,46,32,19,13,0,54,35,16,30.16,29.96,29.79,10,10,10,35,13,48,0.00,3,,300
2014-1-13,50,40,29,13,9,5,39,29,19,30.37,30.26,30.15,10,10,10,28,13,37,0.00,0,,351
2014-1-14,55,44,33,15,13,8,47,32,16,30.41,30.32,30.23,10,10,10,25,13,32,0.00,0,,350
2014-1-15,54,40,25,15,13,11,55,38,20,30.43,30.30,30.18,10,10,10,23,7,29,0.00,1,,3
2014-1-16,56,43,29,13,10,7,47,32,16,30.27,30.19,30.12,10,10,10,18,7,23,0.00,0,,3
2014-1-17,51,39,27,14,11,8,50,35,20,30.34,30.23,30.16,10,10,10,13,3,15,0.00,1,,28
2014-1-18,56,41,26,13,11,9,50,33,15,30.31,30.24,30.16,10,10,10,12,4,13,0.00,0,,350
2014-1-19,55,39,23,14,12,11,60,40,19,30.37,30.25,30.13,10,10,10,13,5,16,0.00,1,,45
2014-1-20,60,45,29,15,11,6,47,30,13,30.38,30.23,30.13,10,10,10,25,9,32,0.00,1,,355
2014-1-21,54,41,27,12,11,8,50,34,18,30.49,30.36,30.22,10,10,10,12,5,14,0.00,1,,18
2014-1-22,46,38,29,12,10,9,47,34,21,30.19,30.07,29.95,10,10,10,26,8,32,0.00,5,,7
2014-1-23,38,29,20,18,14,9,67,48,29,30.62,30.32,29.98,10,10,10,38,26,45,0.00,2,,86
2014-1-24,42,28,13,15,11,7,80,56,32,30.69,30.56,30.45,10,10,10,13,2,16,0.00,5,,349
2014-1-25,50,37,23,14,10,0,60,38,16,30.45,30.27,30.09,10,10,10,12,5,14,0.00,5,,325
2014-1-26,59,44,29,14,6,0,31,21,10,30.11,29.99,29.86,10,10,10,17,7,22,0.00,1,,324
2014-1-27,50,40,29,20,15,11,52,38,24,30.07,29.96,29.87,10,10,10,16,5,19,0.00,4,,111
2014-1-28,51,38,25,15,6,-5,53,34,15,30.21,30.09,29.95,10,10,10,16,7,18,0.00,2,,342
2014-1-29,52,37,22,6,3,1,45,29,13,30.19,30.07,29.92,10,10,10,10,5,14,0.00,2,,181
2014-1-30,67,49,31,28,20,7,47,35,22,29.92,29.78,29.64,10,10,10,35,12,44,0.00,5,,177
2014-1-31,60,51,41,28,25,21,49,39,28,29.71,29.65,29.54,10,10,10,32,14,39,0.00,6,,210